Latest Weather Observations for Hartz Mountains

IDT60801

Issued at 6:31 pm EST Saturday 30 May 2015 (issued every 30 minutes, with the page automatically refreshed every 10 minutes)

About weather observations | Map of weather stations | Latest weather observations for TAS | Other Formats
Station Details ID: 094191 Name: HARTZ MOUNTAIN (KEOGHS PIMPLE) Lat: -43.20 Lon: 146.77 Height: 831.0 m
Data from the previous 72 hours. | See also: Recent months at Hartz Mountains
Date/Time
EST
Temp
°C
App
Temp
°C
Dew
Point
Rel
Hum
%
Delta-T
°C
Wind Press
QNH
hPa
Press
MSL
hPa
Rain
since 9 am
mm
Dir
 
Spd
km/h
Gust
km/h
Spd
kts
Gust
kts
30/06:30pm 1.7 -8.5 0.7 93 0.4 WNW 44 72 24 39 - - 3.0
30/06:00pm 1.8 -7.0 1.2 96 0.2 WNW 37 80 20 43 - - 3.0
30/05:30pm 1.6 -7.6 1.0 96 0.2 WNW 39 74 21 40 - - 3.0
30/05:00pm 1.5 -7.0 0.9 96 0.2 W 35 65 19 35 - - 3.0
30/04:30pm 1.5 -8.2 0.5 93 0.4 WNW 41 72 22 39 - - 3.0
30/04:00pm 2.1 -6.7 1.2 94 0.4 WNW 37 74 20 40 - - 3.0
30/03:30pm 1.6 -7.6 1.5 99 0.0 W 39 76 21 41 - - 3.0
30/03:10pm 1.4 -9.5 1.1 98 0.1 WNW 48 87 26 47 - - 3.0
30/03:09pm 1.3 -9.7 1.0 98 0.1 WNW 48 87 26 47 - - 3.0
30/03:00pm 1.5 -11.9 0.9 96 0.2 WNW 61 102 33 55 - - 3.0
30/02:55pm 1.5 -12.0 0.6 94 0.4 WNW 61 102 33 55 - - 3.0
30/02:34pm 2.8 -8.4 2.1 95 0.3 WNW 50 85 27 46 - - 3.0
30/02:33pm 2.7 -8.5 1.8 94 0.4 WNW 50 85 27 46 - - 3.0
30/02:30pm 2.7 -7.3 2.0 95 0.3 WNW 44 85 24 46 - - 3.0
30/02:29pm 2.7 -7.7 2.0 95 0.3 WNW 46 85 25 46 - - 3.0
30/02:00pm 2.8 -6.6 2.5 98 0.1 WNW 41 67 22 36 - - 3.0
30/01:48pm 1.8 -8.7 1.7 99 0.0 WNW 46 80 25 43 - - 3.0
30/01:42pm 1.6 -8.4 1.3 98 0.1 W 43 80 23 43 - - 3.0
30/01:30pm 2.1 -9.5 1.8 98 0.1 W 52 87 28 47 - - 2.8
30/01:00pm 2.4 -9.9 2.3 99 0.0 WNW 56 83 30 45 - - 2.6
30/12:30pm 2.3 -8.1 2.0 98 0.1 WNW 46 76 25 41 - - 2.4
30/12:15pm 2.3 -7.2 1.9 97 0.2 W 41 70 22 38 - - 2.2
30/12:00pm 2.9 -6.5 2.3 96 0.3 W 41 80 22 43 - - 2.2
30/11:56am 3.4 -6.9 2.8 96 0.3 W 46 80 25 43 - - 2.2
30/11:55am 3.9 -6.6 3.5 97 0.2 WNW 48 76 26 41 - - 2.0
30/11:30am 4.8 -6.4 4.2 96 0.3 WNW 52 78 28 42 - - 0.4
30/11:25am 4.9 -6.3 4.2 95 0.3 WNW 52 78 28 42 - - 0.2
30/11:23am 5.0 -6.9 4.3 95 0.3 WNW 56 95 30 51 - - 0.2
30/11:00am 5.9 -8.5 3.9 87 0.9 WNW 69 98 37 53 - - 0.0
30/10:30am 5.7 -7.8 5.0 95 0.3 NW 65 100 35 54 - - 0.0
30/10:14am 5.8 -9.0 5.1 95 0.3 WNW 72 113 39 61 - - 0.0
30/10:10am 5.8 -8.6 5.2 96 0.3 WNW 70 109 38 59 - - 0.0
30/10:00am 6.0 -6.2 5.6 97 0.2 WNW 59 95 32 51 - - 0.0
30/09:30am 5.8 -5.6 4.9 94 0.4 NW 54 87 29 47 - - 0.0
30/09:00am 5.5 -4.4 4.6 94 0.4 WNW 46 72 25 39 - - 6.6
30/08:48am 5.5 -5.6 4.6 94 0.4 WNW 52 96 28 52 - - 6.6
30/08:45am 5.3 -4.6 4.6 95 0.3 WNW 46 78 25 42 - - 6.6
30/08:41am 5.3 -5.4 4.6 95 0.3 WNW 50 76 27 41 - - 6.6
30/08:39am 5.3 -6.2 4.6 95 0.3 WNW 54 91 29 49 - - 6.6
30/08:30am 5.2 -8.0 4.5 95 0.3 WNW 63 98 34 53 - - 6.6
30/08:09am 5.0 -7.4 4.6 97 0.2 NW 59 96 32 52 - - 6.6
30/08:00am 5.0 -6.1 4.7 98 0.1 WNW 52 76 28 41 - - 6.6
30/07:30am 5.0 -5.3 4.7 98 0.1 WNW 48 69 26 37 - - 6.2
30/07:00am 4.9 -6.6 4.5 97 0.2 WNW 54 85 29 46 - - 6.2
30/06:30am 4.7 -6.4 4.4 98 0.1 WNW 52 80 28 43 - - 6.2
30/06:00am 4.7 -5.3 4.4 98 0.1 WNW 46 80 25 43 - - 6.2
30/05:30am 4.7 -5.3 4.4 98 0.1 WNW 46 76 25 41 - - 6.2
30/05:00am 4.5 -6.2 4.4 99 0.0 WNW 50 76 27 41 - - 6.2
30/04:53am 4.6 -6.5 4.5 99 0.0 WNW 52 76 28 41 - - 6.2
30/04:51am 4.6 -6.1 4.5 99 0.0 WNW 50 76 27 41 - - 6.2
30/04:30am 4.7 -3.2 4.6 99 0.0 WNW 35 59 19 32 - - 6.2
30/04:00am 4.7 -2.6 4.6 99 0.0 NW 32 54 17 29 - - 6.2
30/03:30am 4.7 -2.8 4.6 99 0.0 NW 33 57 18 31 - - 6.0
30/03:06am 4.7 -1.8 4.6 99 0.0 NW 28 50 15 27 - - 5.8
30/03:00am 4.6 -1.6 4.5 99 0.0 NW 26 37 14 20 - - 5.8
30/02:33am 4.5 -2.1 4.4 99 0.0 NW 28 46 15 25 - - 5.2
30/02:30am 4.4 -2.9 4.3 99 0.0 NW 32 48 17 26 - - 5.2
30/02:02am 4.4 -2.2 4.3 99 0.0 WNW 28 59 15 32 - - 5.0
30/02:00am 4.5 -1.7 4.4 99 0.0 WNW 26 43 14 23 - - 5.0
30/01:46am 4.5 -2.1 4.4 99 0.0 WNW 28 61 15 33 - - 5.0
30/01:30am 4.5 -2.5 4.2 98 0.1 NW 30 43 16 23 - - 4.2
30/01:04am 4.3 -3.2 4.2 99 0.0 WNW 33 54 18 29 - - 4.2
30/01:00am 4.2 -3.2 4.1 99 0.0 NW 32 44 17 24 - - 4.2
30/12:52am 4.2 -3.2 4.1 99 0.0 WNW 32 52 17 28 - - 4.2
30/12:30am 4.3 -4.8 4.2 99 0.0 W 41 63 22 34 - - 4.2
30/12:00am 4.5 -2.1 4.4 99 0.0 WNW 28 46 15 25 - - 3.8
 
Date/Time
EST
Temp
°C
App
Temp
°C
Dew
Point
Rel
Hum
%
Delta-T
°C
Wind Press
QNH
hPa
Press
MSL
hPa
Rain
since 9 am
mm
Dir
 
Spd
km/h
Gust
km/h
Spd
kts
Gust
kts
29/11:32pm 4.4 -2.2 4.3 99 0.0 WNW 28 50 15 27 - - 3.2
29/11:30pm 4.4 -2.2 4.3 99 0.0 WNW 28 41 15 22 - - 3.2
29/11:01pm 4.4 -3.9 4.3 99 0.0 WNW 37 70 20 38 - - 3.0
29/11:00pm 4.4 -3.9 4.3 99 0.0 WNW 37 70 20 38 - - 3.0
29/10:30pm 4.5 -5.9 4.4 99 0.0 WNW 48 91 26 49 - - 2.8
29/10:00pm 4.5 -6.7 4.2 98 0.1 W 52 80 28 43 - - 2.8
29/09:30pm 4.3 -6.2 3.9 97 0.2 WNW 48 76 26 41 - - 2.8
29/09:00pm 4.2 -7.7 4.1 99 0.0 WNW 56 91 30 49 - - 2.8
29/08:30pm 4.1 -7.5 4.0 99 0.0 WNW 54 87 29 47 - - 2.8
29/08:00pm 4.2 -7.0 4.1 99 0.0 W 52 76 28 41 - - 2.8
29/07:52pm 4.2 -5.8 4.1 99 0.0 W 46 76 25 41 - - 2.8
29/07:30pm 4.0 -4.4 3.9 99 0.0 WNW 37 56 20 30 - - 2.6
29/07:01pm 3.9 -4.5 3.8 99 0.0 WNW 37 57 20 31 - - 2.4
29/07:00pm 3.9 -4.5 3.8 99 0.0 WNW 37 54 20 29 - - 2.4
29/06:30pm 3.9 -5.2 3.8 99 0.0 WNW 41 61 22 33 - - 2.4
29/06:07pm 3.8 -5.7 3.7 99 0.0 WNW 43 70 23 38 - - 2.4
29/06:00pm 3.6 -4.1 3.3 98 0.1 WNW 33 52 18 28 - - 2.4
29/05:36pm 3.6 -3.2 3.2 97 0.2 WNW 28 46 15 25 - - 2.0
29/05:30pm 3.7 -3.9 3.1 96 0.3 WNW 32 46 17 25 - - 2.0
29/05:00pm 3.6 -7.4 3.2 97 0.2 W 50 80 27 43 - - 2.0
29/04:30pm 3.6 -6.2 3.2 97 0.2 WNW 44 63 24 34 - - 2.0
29/04:00pm 3.4 -6.8 3.0 97 0.2 WNW 46 72 25 39 - - 2.0
29/03:30pm 3.2 -7.1 2.8 97 0.2 WNW 46 67 25 36 - - 2.0
29/03:00pm 3.4 -7.7 2.5 94 0.4 WNW 50 80 27 43 - - 2.0
29/02:30pm 3.2 -6.6 2.3 94 0.4 WNW 43 69 23 37 - - 2.0
29/02:00pm 3.1 -8.4 2.2 94 0.4 WNW 52 80 28 43 - - 2.0
29/01:30pm 3.0 -8.5 2.3 95 0.3 WNW 52 80 28 43 - - 2.0
29/01:00pm 2.8 -8.3 2.2 96 0.2 WNW 50 74 27 40 - - 2.0
29/12:30pm 2.8 -9.1 2.4 97 0.2 WNW 54 91 29 49 - - 2.0
29/12:00pm 2.3 -8.8 2.2 99 0.0 WNW 50 80 27 43 - - 2.0
29/11:30am 2.3 -8.9 2.0 98 0.1 WNW 50 72 27 39 - - 2.0
29/11:00am 2.0 -8.9 1.6 97 0.2 WNW 48 74 26 40 - - 2.0
29/10:30am 2.1 -8.3 2.0 99 0.0 WNW 46 83 25 45 - - 2.0
29/10:00am 1.7 -9.9 1.6 99 0.0 WNW 52 74 28 40 - - 2.0
29/09:30am 0.9 -9.7 0.9 100 0.0 W 46 83 25 45 - - 1.0
29/09:00am 0.3 -11.1 0.3 100 0.0 WNW 50 80 27 43 - - 3.8
29/08:30am 0.0 -9.4 0.0 100 0.0 WNW 39 63 21 34 - - 3.8
29/08:14am 0.0 -10.7 0.0 100 0.0 WNW 46 83 25 45 - - 3.8
29/08:00am 0.1 -9.7 0.1 100 0.0 WNW 41 63 22 34 - - 3.8
29/07:30am 0.0 -8.6 0.0 100 0.0 WNW 35 54 19 29 - - 3.8
29/07:00am 0.0 -8.6 0.0 100 0.0 WNW 35 57 19 31 - - 3.8
29/06:30am 0.0 -9.4 0.0 100 0.0 WNW 39 65 21 35 - - 3.8
29/06:00am -0.1 -9.5 -0.1 100 0.0 WNW 39 65 21 35 - - 3.8
29/05:30am -0.2 -8.9 -0.2 100 0.0 WNW 35 61 19 33 - - 3.8
29/05:00am -0.2 -8.5 -0.2 100 0.0 WNW 33 54 18 29 - - 3.8
29/04:39am -0.2 -9.6 -0.2 100 0.0 WNW 39 57 21 31 - - 3.8
29/04:30am -0.2 -10.0 -0.2 100 0.0 WNW 41 57 22 31 - - 3.8
29/04:00am -0.3 -9.0 -0.3 100 0.0 WNW 35 59 19 32 - - 3.8
29/03:30am -0.3 -9.0 -0.3 100 0.0 W 35 61 19 33 - - 3.8
29/03:21am -0.2 -9.3 -0.3 99 0.0 W 37 65 20 35 - - 3.8
29/03:20am -0.2 -9.3 -0.3 99 0.0 W 37 65 20 35 - - 3.8
29/03:17am -0.1 -9.5 -0.2 99 0.0 WNW 39 65 21 35 - - 3.8
29/03:15am -0.1 -9.1 -0.2 99 0.0 WNW 37 65 20 35 - - 3.8
29/03:08am 0.0 -7.3 -0.1 99 0.0 WNW 28 46 15 25 - - 3.8
29/03:00am 0.1 -6.9 -0.2 98 0.1 WNW 26 41 14 22 - - 3.8
29/02:30am 0.2 -9.2 -0.1 98 0.1 WNW 39 69 21 37 - - 3.8
29/02:00am 0.4 -9.3 0.4 100 0.0 WNW 41 63 22 34 - - 3.4
29/01:30am 0.2 -9.2 0.2 100 0.0 WNW 39 72 21 39 - - 3.4
29/01:00am 0.0 -10.4 -0.1 99 0.0 WNW 44 74 24 40 - - 3.4
29/12:51am 0.2 -10.9 -0.1 98 0.1 WNW 48 80 26 43 - - 3.4
29/12:50am 0.2 -10.5 -0.1 98 0.1 WNW 46 80 25 43 - - 3.4
29/12:46am 0.4 -11.1 0.0 97 0.2 WNW 50 80 27 43 - - 3.4
29/12:30am 0.8 -8.5 0.4 97 0.2 WNW 39 67 21 36 - - 3.4
29/12:00am 0.9 -7.3 0.6 98 0.1 WNW 33 59 18 32 - - 3.4
 
Date/Time
EST
Temp
°C
App
Temp
°C
Dew
Point
Rel
Hum
%
Delta-T
°C
Wind Press
QNH
hPa
Press
MSL
hPa
Rain
since 9 am
mm
Dir
 
Spd
km/h
Gust
km/h
Spd
kts
Gust
kts
28/11:30pm 1.4 -7.8 1.0 97 0.2 WNW 39 69 21 37 - - 3.2
28/11:26pm 1.5 -7.0 1.2 98 0.1 WNW 35 69 19 37 - - 3.2
28/11:00pm 1.4 -6.5 1.3 99 0.0 WNW 32 50 17 27 - - 3.2
28/10:30pm 1.7 -6.1 1.6 99 0.0 WNW 32 52 17 28 - - 3.2
28/10:00pm 1.7 -7.4 1.6 99 0.0 WNW 39 65 21 35 - - 3.0
28/09:31pm 1.9 -7.6 1.8 99 0.0 WNW 41 91 22 49 - - 2.6
28/09:30pm 2.0 -7.5 1.9 99 0.0 WNW 41 54 22 29 - - 2.6
28/09:00pm 2.3 -6.8 2.0 98 0.1 WNW 39 65 21 35 - - 2.6
28/08:30pm 2.5 -7.4 1.9 96 0.2 WNW 43 65 23 35 - - 2.4
28/08:00pm 2.7 -8.0 2.3 97 0.2 WNW 48 82 26 44 - - 2.4
28/07:39pm 2.5 -5.8 2.2 98 0.1 WNW 35 65 19 35 - - 2.4
28/07:30pm 2.5 -5.8 2.1 97 0.2 WNW 35 48 19 26 - - 2.4
28/07:08pm 2.6 -8.9 2.2 97 0.2 WNW 52 72 28 39 - - 2.4
28/07:00pm 2.6 -7.4 2.3 98 0.1 WNW 44 76 24 41 - - 2.4
28/06:30pm 2.9 -8.2 2.5 97 0.2 WNW 50 74 27 40 - - 2.2
28/06:00pm 2.7 -7.3 2.4 98 0.1 WNW 44 72 24 39 - - 2.2
28/05:30pm 2.8 -8.3 2.5 98 0.1 WNW 50 83 27 45 - - 2.2
28/05:26pm 2.8 -8.7 2.5 98 0.1 WNW 52 83 28 45 - - 2.2
28/05:11pm 2.9 -6.4 2.8 99 0.0 WNW 41 80 22 43 - - 2.2
28/05:06pm 3.0 -5.5 2.9 99 0.0 WNW 37 56 20 30 - - 2.2
28/05:00pm 3.0 -5.9 2.9 99 0.0 WNW 39 56 21 30 - - 2.2
28/04:40pm 3.0 -6.3 2.7 98 0.1 WNW 41 80 22 43 - - 2.2
28/04:30pm 3.3 -5.6 3.0 98 0.1 WNW 39 59 21 32 - - 2.2
28/04:00pm 4.0 -3.6 3.7 98 0.1 W 33 56 18 30 - - 2.0
28/03:30pm 4.4 -5.1 3.8 96 0.3 WNW 43 72 23 39 - - 1.4
28/03:23pm 4.6 -4.5 3.9 95 0.3 WNW 41 59 22 32 - - 1.0
28/03:12pm 5.4 -2.5 4.4 93 0.4 NW 35 52 19 28 - - 0.8
28/03:00pm 5.9 -0.7 4.4 90 0.7 NNW 28 54 15 29 - - 0.4
28/02:30pm 6.7 -2.0 4.2 84 1.1 NW 39 69 21 37 - - 0.4
28/02:26pm 6.7 -0.8 4.2 84 1.1 NW 33 61 18 33 - - 0.4
28/02:25pm 6.8 -0.8 4.1 83 1.2 NW 33 61 18 33 - - 0.4
28/02:00pm 6.4 -2.2 4.6 88 0.8 NNW 39 63 21 34 - - 0.4
28/01:30pm 6.5 -0.8 5.3 92 0.6 NNW 33 54 18 29 - - 0.4
28/01:00pm 7.2 0.7 4.9 85 1.1 NNW 28 46 15 25 - - 0.0
28/12:56pm 7.5 1.0 4.8 83 1.2 NNW 28 46 15 25 - - 0.0
28/12:30pm 7.3 0.1 4.9 85 1.1 NW 32 46 17 25 - - 0.0
28/12:00pm 7.4 0.7 5.5 88 0.9 NW 30 52 16 28 - - 0.0
28/11:32am 6.4 -0.8 5.2 92 0.6 NW 32 50 17 27 - - 0.0
28/11:30am 6.4 -0.8 5.2 92 0.6 NW 32 43 17 23 - - 0.0
28/11:00am 6.5 -1.0 4.7 88 0.8 NW 33 52 18 28 - - 0.0
28/10:34am 6.4 -0.1 4.7 89 0.8 NW 28 56 15 30 - - 0.0
28/10:30am 6.4 1.0 4.6 88 0.8 NNW 22 50 12 27 - - 0.0
28/10:00am 6.2 0.0 4.5 89 0.8 NNW 26 46 14 25 - - 0.0
28/09:58am 6.2 -0.3 4.5 89 0.8 NNW 28 46 15 25 - - 0.0
28/09:30am 5.6 0.2 4.7 94 0.4 NW 22 43 12 23 - - 0.0
28/09:00am 5.8 -1.2 4.1 89 0.8 WNW 30 54 16 29 - - 1.0
28/08:41am 6.0 -0.6 4.0 87 0.9 WNW 28 52 15 28 - - 1.0
28/08:30am 5.9 -0.4 3.9 87 0.9 NW 26 46 14 25 - - 1.0
28/08:03am 6.0 -0.8 3.2 82 1.2 NW 28 48 15 26 - - 1.0
28/08:00am 5.9 0.2 2.9 81 1.3 NW 22 44 12 24 - - 1.0
28/07:31am 5.7 -1.2 2.7 81 1.3 WNW 28 46 15 25 - - 1.0
28/07:30am 5.7 -1.6 2.7 81 1.3 WNW 30 46 16 25 - - 1.0
28/07:18am 5.7 -1.2 2.7 81 1.3 WNW 28 46 15 25 - - 1.0
28/07:00am 5.8 -0.3 3.0 82 1.2 NW 24 41 13 22 - - 1.0
28/06:53am 6.0 -0.8 3.0 81 1.3 NW 28 46 15 25 - - 1.0
28/06:30am 5.8 -0.7 2.6 80 1.4 NW 26 44 14 24 - - 1.0
28/06:00am 6.0 -1.6 2.8 80 1.4 WNW 32 50 17 27 - - 1.0
28/05:32am 5.9 -1.9 3.1 82 1.2 WNW 33 52 18 28 - - 1.0
28/05:30am 5.9 -2.2 3.1 82 1.2 WNW 35 52 19 28 - - 1.0
28/05:00am 5.8 -3.5 3.1 83 1.2 WNW 41 69 22 37 - - 1.0
28/04:31am 6.1 -2.7 3.8 85 1.0 WNW 39 65 21 35 - - 1.0
28/04:30am 6.0 -2.8 3.8 86 1.0 WNW 39 56 21 30 - - 1.0
28/04:01am 6.1 -3.0 3.9 86 1.0 NW 41 65 22 35 - - 1.0
28/04:00am 6.2 -2.9 4.0 86 1.0 NW 41 65 22 35 - - 1.0
28/03:30am 6.2 -2.1 4.2 87 0.9 WNW 37 65 20 35 - - 1.0
28/03:00am 6.3 -3.7 4.5 88 0.8 WNW 46 69 25 37 - - 1.0
28/02:30am 6.5 -3.5 4.5 87 0.9 WNW 46 67 25 36 - - 1.0
28/02:00am 6.6 -4.5 4.4 86 1.0 WNW 52 83 28 45 - - 1.0
28/01:30am 6.5 -3.1 4.5 87 0.9 WNW 44 69 24 37 - - 1.0
28/01:00am 6.2 -3.4 4.5 89 0.8 WNW 44 67 24 36 - - 1.0
28/12:30am 6.1 -2.6 4.3 88 0.8 WNW 39 61 21 33 - - 1.0
28/12:00am 6.1 -4.4 3.8 85 1.0 WNW 48 67 26 36 - - 1.0
 
Date/Time
EST
Temp
°C
App
Temp
°C
Dew
Point
Rel
Hum
%
Delta-T
°C
Wind Press
QNH
hPa
Press
MSL
hPa
Rain
since 9 am
mm
Dir
 
Spd
km/h
Gust
km/h
Spd
kts
Gust
kts
27/11:32pm 6.3 -4.4 4.6 89 0.8 WNW 50 70 27 38 - - 1.0
27/11:30pm 6.3 -4.4 4.5 88 0.8 WNW 50 70 27 38 - - 1.0
27/11:28pm 6.2 -4.5 4.5 89 0.8 WNW 50 70 27 38 - - 1.0
27/11:15pm 6.2 -3.3 4.8 91 0.6 WNW 44 67 24 36 - - 1.0
27/11:00pm 6.7 -5.1 5.5 92 0.6 WNW 57 85 31 46 - - 1.0
27/10:53pm 6.7 -4.2 5.7 93 0.5 WNW 52 80 28 43 - - 1.0
27/10:52pm 6.6 -4.3 5.6 93 0.5 WNW 52 80 28 43 - - 1.0
27/10:30pm 6.9 -2.1 6.5 97 0.2 WNW 43 76 23 41 - - 1.0
27/10:26pm 6.9 -1.3 6.5 97 0.2 WNW 39 76 21 41 - - 1.0
27/10:18pm 7.0 0.5 6.6 97 0.2 WNW 30 52 16 28 - - 1.0
27/10:00pm 6.9 1.5 6.3 96 0.3 WNW 24 33 13 18 - - 0.6
27/09:30pm 7.1 0.1 6.2 94 0.4 WNW 32 44 17 24 - - 0.2
27/09:06pm 7.4 1.2 6.0 91 0.7 NW 28 48 15 26 - - 0.0
27/09:00pm 7.4 1.9 5.9 90 0.7 NW 24 35 13 19 - - 0.0
27/08:30pm 7.7 1.8 5.8 88 0.9 NW 26 35 14 19 - - 0.0
27/08:00pm 7.7 2.9 5.7 87 0.9 NW 20 32 11 17 - - 0.0
27/07:30pm 7.8 3.0 5.8 87 0.9 NNW 20 28 11 15 - - 0.0
27/07:00pm 7.7 1.8 5.8 88 0.9 NNW 26 37 14 20 - - 0.0

Other Formats:

Comma delimited format used in spreadsheet applications
http://www.bom.gov.au/fwo/IDT60801/IDT60801.94977.axf

JavaScript Object Notation format (JSON) in row-major order
http://www.bom.gov.au/fwo/IDT60801/IDT60801.94977.json